Weather reports worldwide

Advertisment
S. Valentino Alla Muta, Italy (16008): temperature & dewpoint: 12.10.2018 03:00:00 - 18.10.2018 03:00:00 (CEST)S. Valentino Alla Muta, Italy (16008): wind speed: 12.10.2018 03:00:00 - 18.10.2018 03:00:00 (CEST)S. Valentino Alla Muta, Italy (16008): wind direction: 12.10.2018 03:00:00 - 18.10.2018 03:00:00 (CEST)S. Valentino Alla Muta, Italy (16008): visibility: 12.10.2018 03:00:00 - 18.10.2018 03:00:00 (CEST)
Date & Time tt [°C] td [°C] ff [km/h] ff [kn] dd vv [km]
18.10.2018 03:00:00 - - - - - -
18.10.2018 02:00:00 6,2 6,2 0 0 N 10
18.10.2018 01:00:00 6,2 6,2 0 0 N 10
18.10.2018 00:00:00 7,0 6,2 0 0 N 10
17.10.2018 23:00:00 8,0 6,5 0 0 N 10
17.10.2018 22:00:00 8,6 6,6 0 0 N 12
17.10.2018 21:00:00 8,6 6,5 0 0 N 12
17.10.2018 20:00:00 8,8 6,6 5 3 S 12
17.10.2018 19:00:00 10,0 7,1 8 4 SSW 12
17.10.2018 18:00:00 11,4 5,5 11 6 S 12
17.10.2018 17:00:00 13,0 5,4 15 8 S 12
17.10.2018 16:00:00 13,4 4,8 15 8 S 12
17.10.2018 15:00:00 13,8 2,1 13 7 SSW 20
17.10.2018 14:00:00 14,0 2,3 15 8 S 20
17.10.2018 13:00:00 14,4 3,2 13 7 SSW 20
17.10.2018 12:00:00 14,4 5,0 8 4 SW 20
17.10.2018 11:00:00 9,6 4,6 5 3 N 10
17.10.2018 10:00:00 6,0 4,8 8 4 NNE 20
17.10.2018 09:00:00 4,0 4,0 5 3 NNE 20
17.10.2018 08:00:00 3,8 3,8 5 3 NNE 20
17.10.2018 07:00:00 4,4 4,4 0 0 N 12
17.10.2018 06:00:00 4,6 4,6 5 3 NNE 12
17.10.2018 05:00:00 6,6 6,6 5 3 NNE 12
17.10.2018 04:00:00 4,8 4,8 8 4 NNE 12
17.10.2018 03:00:00 4,8 4,8 0 0 N 12
17.10.2018 02:00:00 5,2 5,2 0 0 N 12
17.10.2018 01:00:00 5,6 5,0 0 0 N 12
17.10.2018 00:00:00 5,8 5,4 0 0 N 12
16.10.2018 23:00:00 6,6 4,9 0 0 N 12
16.10.2018 22:00:00 7,2 5,4 0 0 N 12
16.10.2018 21:00:00 8,4 5,7 0 0 N 12
16.10.2018 20:00:00 9,0 5,6 8 4 S 12
16.10.2018 19:00:00 10,0 5,6 5 3 S 14
16.10.2018 18:00:00 10,2 4,6 11 6 SSE 20
16.10.2018 17:00:00 11,0 5,1 11 6 S 20
16.10.2018 16:00:00 11,8 4,5 15 8 S 20
16.10.2018 15:00:00 12,4 2,6 15 8 S 20
16.10.2018 14:00:00 12,6 4,3 13 7 S 20
16.10.2018 13:00:00 12,8 4,2 13 7 SSW 16
16.10.2018 12:00:00 11,8 5,9 8 4 SSW 20
16.10.2018 11:00:00 9,2 6,1 5 3 SW 16
16.10.2018 10:00:00 7,8 6,4 0 0 N 16
16.10.2018 09:00:00 6,8 6,1 0 0 N 16
16.10.2018 08:00:00 6,8 6,5 5 3 NE 10
16.10.2018 07:00:00 7,4 7,2 0 0 N 10
16.10.2018 06:00:00 7,8 7,7 8 4 S 10
16.10.2018 05:00:00 7,8 7,7 9 5 S 10
16.10.2018 04:00:00 7,8 7,7 11 6 SSE 10
16.10.2018 03:00:00 - - - - - -
16.10.2018 02:00:00 7,8 7,7 9 5 SSE 10
16.10.2018 01:00:00 9,0 7,4 9 5 S 10
16.10.2018 00:00:00 9,0 7,4 8 4 SSE 10
15.10.2018 23:00:00 9,0 6,6 8 4 SSE 10
15.10.2018 22:00:00 9,8 7,4 9 5 SSE 10
15.10.2018 21:00:00 10,0 7,4 8 4 SW 10
15.10.2018 20:00:00 9,0 6,3 0 0 N 10
15.10.2018 19:00:00 9,8 6,5 5 3 SSW 10
15.10.2018 18:00:00 10,2 6,5 9 5 SSE 10
15.10.2018 17:00:00 11,0 6,2 13 7 S 10
15.10.2018 16:00:00 10,8 6,5 15 8 S 10
15.10.2018 15:00:00 11,0 6,9 15 8 SSE 10
15.10.2018 14:00:00 10,6 7,1 16 9 SSE 10
15.10.2018 13:00:00 10,2 6,7 15 8 SSE 10
15.10.2018 12:00:00 10,0 6,7 15 8 SSE 10
15.10.2018 11:00:00 8,8 8,2 13 7 S 10
15.10.2018 10:00:00 8,8 8,0 15 8 SSE 10
15.10.2018 09:00:00 8,0 8,0 11 6 SSE 12
15.10.2018 08:00:00 8,0 8,0 13 7 SSE 12
15.10.2018 07:00:00 8,4 8,2 11 6 S 12
15.10.2018 06:00:00 1,4 1,0 13 7 SE 12
15.10.2018 05:00:00 8,0 7,7 13 7 SE 12
15.10.2018 04:00:00 8,6 7,7 13 7 SE 12
15.10.2018 03:00:00 8,8 6,8 13 7 SSE 12
15.10.2018 02:00:00 9,2 7,0 13 7 SSE 12
15.10.2018 01:00:00 9,6 6,0 9 5 S 12
15.10.2018 00:00:00 9,6 6,0 9 5 S 12
14.10.2018 23:00:00 9,8 6,0 11 6 SSE 12
14.10.2018 22:00:00 9,6 6,1 8 4 SSW 12
14.10.2018 21:00:00 9,6 5,2 8 4 S 12
14.10.2018 20:00:00 10,0 4,8 8 4 S 12
14.10.2018 19:00:00 11,2 4,2 11 6 SE 16
14.10.2018 18:00:00 12,0 3,5 11 6 SSE 20
14.10.2018 17:00:00 12,6 4,6 15 8 SSE 20
14.10.2018 16:00:00 13,0 6,4 16 9 SSE 20
14.10.2018 15:00:00 13,0 6,6 21 11 SSE 20
14.10.2018 14:00:00 13,0 6,6 22 12 SSE 20
14.10.2018 13:00:00 12,4 7,3 21 11 SSE 20
14.10.2018 12:00:00 11,6 7,3 16 9 S 20
14.10.2018 11:00:00 9,4 7,4 15 8 S 20
14.10.2018 10:00:00 7,8 7,8 11 6 SSW 20
14.10.2018 09:00:00 7,6 7,5 9 5 S 10
14.10.2018 08:00:00 7,8 7,7 9 5 SW 10
14.10.2018 07:00:00 7,8 7,5 9 5 SSW 10
14.10.2018 06:00:00 8,0 7,9 11 6 SSW 10
14.10.2018 05:00:00 8,4 8,2 9 5 SSW 10
14.10.2018 04:00:00 8,8 8,7 11 6 SSE 10
14.10.2018 03:00:00 8,8 8,7 9 5 S 10
14.10.2018 02:00:00 8,8 8,7 9 5 S 10
14.10.2018 01:00:00 - - - - - -
14.10.2018 00:00:00 - - - - - -
13.10.2018 23:00:00 10,4 7,6 13 7 SE 10
13.10.2018 22:00:00 11,2 7,9 13 7 SE 10
13.10.2018 21:00:00 12,2 7,5 13 7 SSE 10
13.10.2018 20:00:00 12,8 7,5 13 7 SE 10
13.10.2018 19:00:00 13,2 7,4 13 7 SSE 10
13.10.2018 18:00:00 13,6 7,4 13 7 SSE 10
13.10.2018 17:00:00 15,0 5,8 15 8 SE 20
13.10.2018 16:00:00 15,2 4,9 16 9 ESE 10
13.10.2018 15:00:00 16,2 6,1 16 9 SSE 10
13.10.2018 14:00:00 11,0 0,4 13 7 S 20
13.10.2018 13:00:00 15,0 6,0 11 6 S 10
13.10.2018 12:00:00 14,4 6,2 15 8 SSW 20
13.10.2018 11:00:00 13,0 6,6 5 3 SSW 10
13.10.2018 10:00:00 8,6 6,5 5 3 NNE 20
13.10.2018 09:00:00 6,4 6,4 8 4 NNE 20
13.10.2018 08:00:00 6,4 6,4 8 4 NNE 20
13.10.2018 07:00:00 6,8 6,8 8 4 NNE 12
13.10.2018 06:00:00 7,0 7,0 8 4 NNE 12
13.10.2018 05:00:00 7,2 7,0 0 0 N 10
13.10.2018 04:00:00 7,4 7,2 0 0 N 12
13.10.2018 03:00:00 7,4 7,4 8 4 NNE 12
13.10.2018 02:00:00 7,4 7,4 8 4 NNE 12
13.10.2018 01:00:00 7,8 6,6 0 0 N 12
13.10.2018 00:00:00 8,0 6,5 0 0 N 12
12.10.2018 23:00:00 8,6 6,7 0 0 N 12
12.10.2018 22:00:00 9,4 7,2 0 0 N 12
12.10.2018 21:00:00 10,0 6,9 0 0 N 12
12.10.2018 20:00:00 11,4 7,3 0 0 N 12
12.10.2018 19:00:00 12,6 6,9 5 3 SSE 14
12.10.2018 18:00:00 13,6 6,9 8 4 SSW 20
12.10.2018 17:00:00 15,4 6,7 8 4 SSW 20
12.10.2018 16:00:00 16,0 4,4 13 7 S 20
12.10.2018 15:00:00 - - - - - -
12.10.2018 14:00:00 15,8 7,1 13 7 SSW 20
12.10.2018 13:00:00 16,2 6,6 15 8 SSW 20
12.10.2018 12:00:00 15,4 3,9 5 3 NNW 20
12.10.2018 11:00:00 11,8 7,7 5 3 N 20
12.10.2018 10:00:00 8,4 8,4 5 3 NNE 20
12.10.2018 09:00:00 6,2 6,0 5 3 NNE 10
12.10.2018 08:00:00 6,2 6,1 5 3 NNE 10
12.10.2018 07:00:00 6,6 6,5 5 3 NNE 10
12.10.2018 06:00:00 8,8 8,7 5 3 NNE 10
12.10.2018 05:00:00 9,0 8,9 5 3 N 10
12.10.2018 04:00:00 - - - - - -
12.10.2018 03:00:00 8,6 8,3 11 6 SSW 10

tt = temperature
td = dewpoint
ff = wind speed
dd = wind direction
vv = visibility

Next stations